PENO2: Grand Lake O' The Cherokees, Pensacola Dm

Data processed at Mon Jan 15 2018 23:31


All information presented herein is the property of the government of the United States of America and may be revised or deleted at any time without prior notice.
Dissemination of this information without the expressed written consent of the Public Affairs Office, Tulsa District U.S. Army Corps of Engineers is strictly prohibited.
These data are gathered electronically and, as presented, have not undergone any form of quality control. These data are not guaranteed to be valid or correct.
Go to home page.
Go to station list.

Upstream stations:

Downstream station:
Previous Day
Next Day
Current Day
    
SHEF ID:       PENO2     Lake O' the Cherokees at Langley
STATION TYPE:  RESERVOIR

               PRECIP ELEVATION   STORAGE    INFLOW   RELEASE  AIR-TEMP  WIND-DIRWIND-SPEED REL-HUMID SOLAR-RAD   VOLTAGE  BAT-LOAD
                   in        ft     ac-ft       cfs       cfs         F       deg       mph         %      W/m2      volt      volt
              Ccp-Rev   Ccp-Rev   Ccp-Rev  Regi-Rev  Regi-Rev   Ccp-Rev   Ccp-Rev   Ccp-Rev   Ccp-Rev   Ccp-Rev   Ccp-Rev   Ccp-Rev
(US/Central)
01/13 00:00      0.00    742.11   1397133      -901      -901     24.93    345.54     12.58     68.93      0.00     12.80     12.57
01/13 01:00      0.00    742.09   1396327      -901      -901     23.95    345.35     11.73     70.16      0.00     12.77     12.49
01/13 02:00      0.00    742.09   1396327      -901      -901     23.27    338.98     11.65     68.20      0.00     12.75     12.49
01/13 03:00      0.00    742.09   1396327      -901      -901     22.30    328.61     12.68     69.30      0.00     12.73     12.41
01/13 04:00      0.00    742.11   1397133      -901      -901     22.19    336.64     11.95     65.37      0.00     12.71     12.41
01/13 05:00      0.00    742.11   1397133      -901      -901     22.23    338.49     13.71     63.56      0.00     12.69     12.41
01/13 06:00      0.00    742.13   1397939      -901      -901     22.33    338.80     14.21     62.44      0.00     12.67     12.41
01/13 07:00      0.00    742.11   1397133      -901      -901     21.87    343.02     13.30     60.39      0.00     12.65     12.41
01/13 08:00      0.00    742.12   1397536      -901      -901     21.60    344.85     12.24     60.05      0.04     12.63     12.33
01/13 09:00      0.00    742.10   1396730      -901      -901     21.51    346.38     12.04     59.56     61.15     12.61     12.33
01/13 10:00      0.00    742.08   1395924      -901      -901     21.76    339.50      9.88     58.27    121.27     12.58     12.33
01/13 11:00      0.00    742.08   1395924      -901      -901     22.12    348.03      8.39     55.35    214.08     12.57     12.33
01/13 12:00      0.00    742.08   1395924      -901      -901     23.13    356.03      5.96     52.54    267.56     12.55     12.25
01/13 13:00      0.00    742.07   1395521      -901      -901     24.15    352.91      5.16     49.08    431.05     12.54     12.25
01/13 14:00      0.00    742.07   1395521      -901      -901     25.84    350.66      3.72     46.59    461.17     12.53     12.25
01/13 15:00      0.00    742.06   1395118      -901      -901     27.88     15.67      4.00     43.19    382.00     12.54     12.25
01/13 16:00      0.00    742.07   1395521      -901      -901     28.51     14.22      5.10     39.76    280.45     12.54     12.25
01/13 17:00      0.00    742.07   1395521      -901      -901     29.25      1.92      3.98     41.62    113.76     12.54     12.25
01/13 18:00      0.00    742.05   1394715      -901      -901     29.14      8.55      2.46     42.41      1.89     12.54     12.25
01/13 19:00      0.00    742.07   1395521      -901      -901     29.46      8.41      4.87     46.51      0.00     12.52     12.25
01/13 20:00      0.00    742.09   1396327      -901      -901     29.26     13.68      4.63     49.39      0.00     12.53     12.25
01/13 21:00      0.00    742.09   1396327      -901      -901     29.08     24.04      2.36     47.89      0.00     12.52     12.25
01/13 22:00      0.00    742.06   1395118      -901      -901     28.63     27.16      2.12     45.06      0.00     12.52     12.25
01/13 23:00      0.00    742.07   1395521      -901      -901     28.56     25.13      2.17     46.39      0.00     13.49     13.21